createdAt,value
2022-11-20T00:01:21.612Z,94818.72
2022-11-20T00:03:48.444Z,94824.91
2022-11-20T00:06:18.174Z,94818.66
2022-11-20T00:08:45.247Z,94828.16
2022-11-20T00:11:19.401Z,94837.53
2022-11-20T00:13:47.967Z,94837.47
2022-11-20T00:16:17.752Z,94837.84
2022-11-20T00:18:45.140Z,94841.28
2022-11-20T00:21:17.859Z,94840.72
2022-11-20T00:23:45.344Z,94841.66
2022-11-20T00:26:14.972Z,94851.44
2022-11-20T00:28:43.221Z,94850.19
2022-11-20T00:31:13.338Z,94851.16
2022-11-20T00:33:44.477Z,94852.63
2022-11-20T00:36:14.736Z,94851.03
2022-11-20T00:38:42.148Z,94856.66
2022-11-20T00:41:11.299Z,94858.47
2022-11-20T00:43:38.951Z,94858.66
2022-11-20T00:46:10.338Z,94859.69
2022-11-20T00:48:37.499Z,94867.53
2022-11-20T00:51:05.306Z,94864.16
2022-11-20T00:53:32.441Z,94866.38
2022-11-20T00:56:01.631Z,94862.53
2022-11-20T00:58:36.918Z,94865.75
2022-11-20T01:01:10.350Z,94862.69
2022-11-20T01:03:40.293Z,94872.41
2022-11-20T01:06:11.067Z,94877.22
2022-11-20T01:08:38.293Z,94882.47
2022-11-20T01:11:08.188Z,94877.25
2022-11-20T01:13:36.616Z,94875.28
2022-11-20T01:16:15.562Z,94885.31
2022-11-20T01:18:45.257Z,94885.31
2022-11-20T01:21:15.231Z,94888.53
2022-11-20T01:23:44.417Z,94888.75
2022-11-20T01:26:14.984Z,94890.25
2022-11-20T01:28:42.690Z,94891.19
2022-11-20T01:31:37.043Z,94889.41
2022-11-20T01:34:06.906Z,94888.53
2022-11-20T01:36:35.943Z,94890.97
2022-11-20T01:39:07.195Z,94883.34
2022-11-20T01:41:35.781Z,94888.59
2022-11-20T01:44:04.567Z,94886.31
2022-11-20T01:46:33.217Z,94890.72
2022-11-20T01:49:25.437Z,94890.72
2022-11-20T01:51:58.634Z,94892.56
2022-11-20T01:54:46.687Z,94887.94
2022-11-20T01:57:14.844Z,94889.50
2022-11-20T01:59:48.971Z,94894.41
2022-11-20T02:02:15.996Z,94890.75
2022-11-20T02:04:42.680Z,94886.53
2022-11-20T02:07:09.984Z,94894.22
2022-11-20T02:09:36.608Z,94891.59
2022-11-20T02:12:04.652Z,94891.28
2022-11-20T02:14:31.608Z,94889.84
2022-11-20T02:16:58.453Z,94890.47
2022-11-20T02:19:30.864Z,94895.34
2022-11-20T02:22:13.498Z,94897.16
2022-11-20T02:24:42.500Z,94897.06
2022-11-20T02:27:13.759Z,94897.00
2022-11-20T02:29:50.140Z,94897.09
2022-11-20T02:32:27.145Z,94900.00
2022-11-20T02:34:54.345Z,94902.22
2022-11-20T02:37:22.408Z,94906.19
2022-11-20T02:39:52.085Z,94904.34
2022-11-20T02:42:19.473Z,94911.00
2022-11-20T02:44:46.092Z,94915.75
2022-11-20T02:47:12.883Z,94908.47
2022-11-20T02:49:39.641Z,94901.22
2022-11-20T02:52:06.438Z,94898.38
2022-11-20T02:54:33.117Z,94908.53
2022-11-20T02:56:59.764Z,94910.75
2022-11-20T02:59:26.355Z,94906.94
2022-11-20T03:01:52.986Z,94910.78
2022-11-20T03:04:19.702Z,94907.75
2022-11-20T03:06:46.323Z,94902.91
2022-11-20T03:09:13.311Z,94903.72
2022-11-20T03:11:39.955Z,94910.97
2022-11-20T03:14:06.792Z,94906.91
2022-11-20T03:16:33.389Z,94911.34
2022-11-20T03:19:00.983Z,94910.94
2022-11-20T03:21:27.997Z,94910.94
2022-11-20T03:23:55.808Z,94919.47
2022-11-20T03:26:25.029Z,94919.03
2022-11-20T03:28:57.096Z,94920.66
2022-11-20T03:31:27.067Z,94917.00
2022-11-20T03:33:54.162Z,94922.66
2022-11-20T03:36:21.918Z,94918.59
2022-11-20T03:38:49.613Z,94914.19
2022-11-20T03:41:24.495Z,94927.47
2022-11-20T03:43:53.409Z,94924.28
2022-11-20T03:46:21.148Z,94925.81
2022-11-20T03:48:51.902Z,94921.41
2022-11-20T03:51:24.756Z,94924.69
2022-11-20T03:53:53.841Z,94926.88
2022-11-20T03:56:24.609Z,94926.50
2022-11-20T03:58:53.340Z,94928.69
2022-11-20T04:01:22.929Z,94923.50
2022-11-20T04:03:50.284Z,94928.13
2022-11-20T04:06:20.669Z,94928.75
2022-11-20T04:08:53.329Z,94929.72
2022-11-20T04:11:24.480Z,94933.50
2022-11-20T04:14:15.908Z,94934.34
2022-11-20T04:16:43.617Z,94937.28
2022-11-20T04:19:13.481Z,94940.91
2022-11-20T04:21:40.121Z,94933.16
2022-11-20T04:24:07.648Z,94936.53
2022-11-20T04:26:35.050Z,94937.72
2022-11-20T04:29:01.936Z,94929.72
2022-11-20T04:31:30.849Z,94930.00
2022-11-20T04:34:04.901Z,94919.00
2022-11-20T04:36:32.492Z,94935.22
2022-11-20T04:39:01.834Z,94933.72
2022-11-20T04:41:35.105Z,94932.66
2022-11-20T04:44:03.990Z,94928.13
2022-11-20T04:46:36.670Z,94934.31
2022-11-20T04:49:03.841Z,94923.25
2022-11-20T04:51:30.428Z,94929.84
2022-11-20T04:53:57.164Z,94934.69
2022-11-20T04:56:24.173Z,94929.84
2022-11-20T04:58:51.430Z,94928.91
2022-11-20T05:01:27.054Z,94924.25
2022-11-20T05:03:53.713Z,94926.53
2022-11-20T05:06:22.424Z,94926.72
2022-11-20T05:08:49.651Z,94923.78
2022-11-20T05:11:22.669Z,94918.16
2022-11-20T05:13:50.636Z,94914.41
2022-11-20T05:16:21.108Z,94916.13
2022-11-20T05:18:48.561Z,94926.50
2022-11-20T05:21:16.062Z,94925.91
2022-11-20T05:23:44.495Z,94935.63
2022-11-20T05:26:17.098Z,94932.19
2022-11-20T05:28:44.613Z,94926.63
2022-11-20T05:31:21.970Z,94931.41
2022-11-20T05:33:50.512Z,94933.44
2022-11-20T05:36:18.475Z,94928.91
2022-11-20T05:38:47.985Z,94932.13
2022-11-20T05:41:19.656Z,94931.91
2022-11-20T05:43:48.933Z,94935.38
2022-11-20T05:46:22.253Z,94936.59
2022-11-20T05:48:51.634Z,94940.09
2022-11-20T05:51:19.960Z,94941.19
2022-11-20T05:53:48.686Z,94932.97
2022-11-20T05:56:22.726Z,94932.38
2022-11-20T05:58:50.144Z,94936.34
2022-11-20T06:01:26.668Z,94944.13
2022-11-20T06:03:54.703Z,94938.50
2022-11-20T06:06:22.236Z,94942.63
2022-11-20T06:08:49.495Z,94942.25
2022-11-20T06:11:17.398Z,94943.50
2022-11-20T06:13:44.450Z,94946.88
2022-11-20T06:16:13.502Z,94950.81
2022-11-20T06:18:40.176Z,94949.25
2022-11-20T06:21:10.298Z,94946.22
2022-11-20T06:23:38.157Z,94950.06
2022-11-20T06:26:10.750Z,94951.47
2022-11-20T06:28:37.705Z,94958.78
2022-11-20T06:31:04.949Z,94948.84
2022-11-20T06:33:31.592Z,94952.53
2022-11-20T06:36:05.867Z,94952.41
2022-11-20T06:38:35.752Z,94953.69
2022-11-20T06:41:03.805Z,94955.19
2022-11-20T06:43:30.748Z,94946.09
2022-11-20T06:45:59.737Z,94952.97
2022-11-20T06:48:30.473Z,94955.13
2022-11-20T06:50:58.271Z,94959.72
2022-11-20T06:53:25.902Z,94951.25
2022-11-20T06:55:53.404Z,94959.81
2022-11-20T06:58:20.002Z,94965.88
2022-11-20T07:00:46.753Z,94969.81
2022-11-20T07:03:13.560Z,94968.28
2022-11-20T07:05:40.400Z,94971.06
2022-11-20T07:08:07.201Z,94971.94
2022-11-20T07:10:34.199Z,94969.41
2022-11-20T07:13:00.822Z,94966.47
2022-11-20T07:15:28.236Z,94969.91
2022-11-20T07:17:54.952Z,94976.16
2022-11-20T07:20:21.564Z,94973.69
2022-11-20T07:22:54.039Z,94978.28
2022-11-20T07:25:20.660Z,94981.84
2022-11-20T07:27:47.312Z,94991.06
2022-11-20T07:30:14.776Z,94997.38
2022-11-20T07:32:41.443Z,94987.50
2022-11-20T07:35:08.423Z,94987.94
2022-11-20T07:37:36.033Z,94997.81
2022-11-20T07:40:03.161Z,94997.94
2022-11-20T07:42:29.747Z,94989.38
2022-11-20T07:44:56.353Z,94995.00
2022-11-20T07:47:22.982Z,94994.81
2022-11-20T07:49:49.651Z,94991.34
2022-11-20T07:52:16.343Z,94991.47
2022-11-20T07:54:42.964Z,94986.13
2022-11-20T07:57:09.596Z,94975.66
2022-11-20T07:59:36.212Z,94977.22
2022-11-20T08:02:02.872Z,94978.31
2022-11-20T08:04:29.489Z,94988.41
2022-11-20T08:06:56.104Z,94986.06
2022-11-20T08:09:23.051Z,94990.28
2022-11-20T08:11:49.873Z,94993.53
2022-11-20T08:14:16.543Z,94993.03
2022-11-20T08:16:46.593Z,94992.78
2022-11-20T08:19:14.953Z,94993.66
2022-11-20T08:21:41.961Z,94999.03
2022-11-20T08:24:09.671Z,94997.78
2022-11-20T08:26:38.487Z,94994.19
2022-11-20T08:29:06.189Z,95000.78
2022-11-20T08:31:33.388Z,94998.94
2022-11-20T08:33:59.997Z,95011.06
2022-11-20T08:36:26.748Z,95008.66
2022-11-20T08:38:55.760Z,95005.66
2022-11-20T08:41:23.006Z,95009.25
2022-11-20T08:43:50.008Z,95012.41
2022-11-20T08:46:16.766Z,95010.34
2022-11-20T08:48:44.066Z,95008.56
2022-11-20T08:51:11.909Z,95001.81
2022-11-20T08:53:40.710Z,95014.97
2022-11-20T08:56:07.777Z,95015.94
2022-11-20T08:58:55.039Z,95018.34
2022-11-20T09:01:23.479Z,95020.28
2022-11-20T09:03:50.317Z,95015.84
2022-11-20T09:06:17.930Z,95017.38
2022-11-20T09:08:44.941Z,95026.56
2022-11-20T09:11:11.748Z,95014.63
2022-11-20T09:13:38.510Z,95027.63
2022-11-20T09:16:09.867Z,95016.22
2022-11-20T09:18:37.750Z,95023.28
2022-11-20T09:21:08.154Z,95017.38
2022-11-20T09:23:37.313Z,95020.06
2022-11-20T09:26:12.292Z,95027.28
2022-11-20T09:28:39.854Z,95019.63
2022-11-20T09:31:19.807Z,95022.78
2022-11-20T09:33:46.480Z,95022.78
2022-11-20T09:36:13.064Z,95024.47
2022-11-20T09:38:39.676Z,95014.78
2022-11-20T09:41:07.616Z,95023.34
2022-11-20T09:43:50.952Z,95014.78
2022-11-20T09:46:39.716Z,95019.78
2022-11-20T09:49:32.420Z,95019.16
2022-11-20T09:52:05.757Z,95023.84
2022-11-20T09:54:38.099Z,95017.78
2022-11-20T09:57:13.371Z,95018.53
2022-11-20T09:59:46.833Z,95017.50
2022-11-20T10:02:17.147Z,95022.78
2022-11-20T10:04:53.658Z,95007.34
2022-11-20T10:07:33.398Z,95026.47
2022-11-20T10:10:00.913Z,95019.34
2022-11-20T10:13:06.240Z,95021.97
2022-11-20T10:15:54.359Z,95022.97
2022-11-20T10:18:42.669Z,95025.97
2022-11-20T10:21:24.041Z,95017.56
2022-11-20T10:24:09.353Z,95019.81
2022-11-20T10:26:51.862Z,95009.31
2022-11-20T10:29:28.192Z,95017.56
2022-11-20T10:32:05.243Z,95009.28
2022-11-20T10:34:38.443Z,95008.75
2022-11-20T10:37:18.908Z,95011.50
2022-11-20T10:39:56.146Z,95006.34
2022-11-20T10:42:50.796Z,95010.78
2022-11-20T10:45:26.552Z,95011.75
2022-11-20T10:48:08.997Z,95020.97
2022-11-20T10:50:41.239Z,95003.59
2022-11-20T10:53:28.856Z,95006.34
2022-11-20T10:56:05.276Z,95004.97
2022-11-20T10:58:59.993Z,95011.50
2022-11-20T11:01:26.769Z,94999.00
2022-11-20T11:03:55.909Z,94996.75
2022-11-20T11:06:47.677Z,94993.84
2022-11-20T11:09:28.824Z,94992.34
2022-11-20T11:11:55.429Z,94985.75
2022-11-20T11:14:22.069Z,94982.97
2022-11-20T11:16:57.420Z,94978.00
2022-11-20T11:19:25.308Z,94974.16
2022-11-20T11:21:57.864Z,94976.09
2022-11-20T11:24:42.219Z,94974.63
2022-11-20T11:27:17.678Z,94962.00
2022-11-20T11:29:45.406Z,94956.47
2022-11-20T11:32:19.188Z,94952.72
2022-11-20T11:34:46.150Z,94948.25
2022-11-20T11:37:22.254Z,94940.38
2022-11-20T11:40:03.984Z,94935.88
2022-11-20T11:42:43.736Z,94918.47
2022-11-20T11:45:16.649Z,94916.22
2022-11-20T11:47:43.229Z,94910.94
2022-11-20T11:50:09.831Z,94917.16
2022-11-20T11:52:46.139Z,94902.06
2022-11-20T11:55:30.977Z,94898.69
2022-11-20T11:58:09.375Z,94893.66
2022-11-20T12:00:41.968Z,94885.38
2022-11-20T12:03:35.480Z,94873.19
2022-11-20T12:06:13.702Z,94879.44
2022-11-20T12:08:54.716Z,94875.19
2022-11-20T12:11:46.893Z,94869.06
2022-11-20T12:14:23.268Z,94871.03
2022-11-20T12:16:49.859Z,94861.38
2022-11-20T12:19:16.508Z,94866.81
2022-11-20T12:22:33.806Z,94844.38
2022-11-20T12:25:06.206Z,94838.44
2022-11-20T12:27:50.907Z,94840.84
2022-11-20T12:30:20.037Z,94851.84
2022-11-20T12:33:31.475Z,94858.69
2022-11-20T12:36:43.579Z,94860.03
2022-11-20T12:39:29.542Z,94866.47
2022-11-20T12:42:28.450Z,94854.66
2022-11-20T12:45:19.951Z,94837.25
2022-11-20T12:48:08.150Z,94823.28
2022-11-20T12:51:08.233Z,94828.94
2022-11-20T12:53:56.041Z,94832.16
2022-11-20T12:56:22.569Z,94842.34
2022-11-20T12:59:13.748Z,94835.38
2022-11-20T13:03:57.114Z,94847.69
2022-11-20T13:06:27.069Z,94842.66
2022-11-20T13:08:56.666Z,94846.97
2022-11-20T13:11:32.314Z,94842.47
2022-11-20T13:14:17.103Z,94859.69
2022-11-20T13:17:24.609Z,94851.03
2022-11-20T13:19:55.897Z,94833.06
2022-11-20T13:22:30.277Z,94825.44
2022-11-20T13:24:57.144Z,94833.81
2022-11-20T13:27:25.160Z,94838.22
2022-11-20T13:30:16.786Z,94832.91
2022-11-20T13:32:55.903Z,94842.47
2022-11-20T13:35:32.772Z,94837.03
2022-11-20T13:38:05.383Z,94823.72
2022-11-20T13:40:32.512Z,94820.81
2022-11-20T13:43:05.028Z,94813.47
2022-11-20T13:45:33.581Z,94805.03
2022-11-20T13:48:19.927Z,94802.09
2022-11-20T13:51:09.812Z,94801.75
2022-11-20T13:53:54.353Z,94797.06
2022-11-20T13:57:03.209Z,94800.69
2022-11-20T13:59:39.916Z,94805.75
2022-11-20T14:02:16.608Z,94806.31
2022-11-20T14:04:50.971Z,94794.97
2022-11-20T14:07:21.427Z,94799.41
2022-11-20T14:09:57.128Z,94797.25
2022-11-20T14:12:30.626Z,94798.50
2022-11-20T14:14:57.587Z,94798.50
2022-11-20T14:17:33.964Z,94792.63
2022-11-20T14:20:15.735Z,94791.25
2022-11-20T14:22:49.922Z,94783.88
2022-11-20T14:25:16.511Z,94780.28
2022-11-20T14:27:49.722Z,94758.72
2022-11-20T14:30:26.380Z,94767.53
2022-11-20T14:32:58.715Z,94759.66
2022-11-20T14:35:28.833Z,94761.06
2022-11-20T14:37:57.075Z,94763.44
2022-11-20T14:40:33.744Z,94759.94
2022-11-20T14:43:00.712Z,94760.28
2022-11-20T14:45:28.305Z,94760.50
2022-11-20T14:47:58.320Z,94763.81
2022-11-20T14:50:28.416Z,94755.69
2022-11-20T14:53:00.188Z,94751.13
2022-11-20T14:55:36.506Z,94749.09
2022-11-20T14:58:06.740Z,94750.69
2022-11-20T15:00:35.718Z,94749.59
2022-11-20T15:03:02.342Z,94750.63
2022-11-20T15:05:49.173Z,94749.63
2022-11-20T15:08:17.701Z,94747.25
2022-11-20T15:10:50.824Z,94737.69
2022-11-20T15:13:24.873Z,94742.88
2022-11-20T15:15:54.542Z,94734.13
2022-11-20T15:18:29.349Z,94733.91
2022-11-20T15:20:58.872Z,94727.19
2022-11-20T15:23:28.841Z,94732.66
2022-11-20T15:25:57.013Z,94740.44
2022-11-20T15:28:42.284Z,94740.81
2022-11-20T15:31:14.720Z,94736.75
2022-11-20T15:33:44.119Z,94729.78
2022-11-20T15:36:10.875Z,94734.91
2022-11-20T15:38:38.212Z,94735.06
2022-11-20T15:41:05.793Z,94733.66
2022-11-20T15:43:32.684Z,94721.94
2022-11-20T15:46:13.719Z,94728.97
2022-11-20T15:48:48.859Z,94728.84
2022-11-20T15:51:15.492Z,94730.47
2022-11-20T15:53:43.072Z,94727.50
2022-11-20T15:56:13.998Z,94728.38
2022-11-20T15:58:41.548Z,94726.63
2022-11-20T16:01:17.332Z,94724.31
2022-11-20T16:03:44.265Z,94729.94
2022-11-20T16:06:11.012Z,94739.38
2022-11-20T16:08:37.690Z,94735.34
2022-11-20T16:11:05.105Z,94743.59
2022-11-20T16:13:33.106Z,94749.50
2022-11-20T16:16:03.457Z,94754.81
2022-11-20T16:18:30.054Z,94759.16
2022-11-20T16:20:56.637Z,94768.59
2022-11-20T16:23:23.409Z,94764.38
2022-11-20T16:25:51.336Z,94764.03
2022-11-20T16:28:19.514Z,94766.16
2022-11-20T16:30:47.170Z,94771.22
2022-11-20T16:33:17.191Z,94756.50
2022-11-20T16:35:44.369Z,94746.53
2022-11-20T16:38:11.213Z,94757.75
2022-11-20T16:40:37.808Z,94751.50
2022-11-20T16:43:13.937Z,94758.03
2022-11-20T16:45:45.160Z,94765.50
2022-11-20T16:48:17.568Z,94768.72
2022-11-20T16:50:50.526Z,94771.22
2022-11-20T16:53:20.074Z,94782.75
2022-11-20T16:55:47.199Z,94774.56
2022-11-20T16:58:16.127Z,94770.63
2022-11-20T17:00:48.290Z,94771.34
2022-11-20T17:03:16.777Z,94776.53
2022-11-20T17:05:43.363Z,94777.34
2022-11-20T17:08:10.093Z,94796.03
2022-11-20T17:10:36.723Z,94797.47
2022-11-20T17:13:03.309Z,94808.44
2022-11-20T17:15:31.001Z,94817.06
2022-11-20T17:17:59.881Z,94822.41
2022-11-20T17:20:26.542Z,94828.69
2022-11-20T17:22:53.159Z,94844.31
2022-11-20T17:25:19.829Z,94832.78
2022-11-20T17:27:46.428Z,94834.75
2022-11-20T17:30:13.115Z,94844.94
2022-11-20T17:32:39.722Z,94855.03
2022-11-20T17:35:06.550Z,94847.13
2022-11-20T17:37:33.183Z,94850.28
2022-11-20T17:39:59.808Z,94853.97
2022-11-20T17:42:27.448Z,94845.50
2022-11-20T17:44:54.166Z,94838.78
2022-11-20T17:47:20.740Z,94831.41
2022-11-20T17:49:47.544Z,94834.75
2022-11-20T17:52:15.172Z,94835.81
2022-11-20T17:54:41.796Z,94858.25
2022-11-20T17:57:09.630Z,94863.13
2022-11-20T17:59:37.770Z,94866.53
2022-11-20T18:02:04.407Z,94875.94
2022-11-20T18:04:31.125Z,94873.59
2022-11-20T18:06:57.738Z,94879.13
2022-11-20T18:09:24.330Z,94874.75
2022-11-20T18:11:50.968Z,94902.75
2022-11-20T18:14:18.196Z,94913.00
2022-11-20T18:16:46.385Z,94901.84
2022-11-20T18:19:17.003Z,94910.63
2022-11-20T18:21:43.653Z,94911.38
2022-11-20T18:24:11.139Z,94908.75
2022-11-20T18:26:43.881Z,94904.72
2022-11-20T18:29:12.413Z,94916.63
2022-11-20T18:31:39.202Z,94919.03
2022-11-20T18:34:06.449Z,94910.19
2022-11-20T18:36:33.120Z,94901.69
2022-11-20T18:39:00.808Z,94896.63
2022-11-20T18:41:29.865Z,94910.16
2022-11-20T18:43:56.759Z,94898.88
2022-11-20T18:46:23.370Z,94901.88
2022-11-20T18:48:50.050Z,94907.72
2022-11-20T18:51:16.656Z,94909.78
2022-11-20T18:53:47.317Z,94913.56
2022-11-20T18:56:14.454Z,94912.59
2022-11-20T18:58:41.125Z,94898.66
2022-11-20T19:01:08.496Z,94900.06
2022-11-20T19:03:35.185Z,94897.22
2022-11-20T19:06:02.005Z,94900.03
2022-11-20T19:08:28.815Z,94904.09
2022-11-20T19:10:55.720Z,94909.97
2022-11-20T19:13:22.343Z,94919.59
2022-11-20T19:15:49.074Z,94903.69
2022-11-20T19:18:15.683Z,94911.75
2022-11-20T19:20:42.284Z,94905.91
2022-11-20T19:23:08.896Z,94914.38
2022-11-20T19:25:38.367Z,94905.69
2022-11-20T19:28:05.488Z,94906.50
2022-11-20T19:30:32.983Z,94910.94
2022-11-20T19:32:59.598Z,94919.22
2022-11-20T19:35:26.228Z,94915.56
2022-11-20T19:37:53.285Z,94920.97
2022-11-20T19:40:19.870Z,94926.47
2022-11-20T19:42:46.454Z,94922.88
2022-11-20T19:45:13.025Z,94924.63
2022-11-20T19:48:06.730Z,94940.03
2022-11-20T19:50:26.216Z,94947.31
2022-11-20T19:52:57.333Z,94948.50
2022-11-20T19:55:25.310Z,94956.59
2022-11-20T19:57:52.140Z,94958.63
2022-11-20T20:00:25.631Z,94957.22
2022-11-20T20:02:57.617Z,94949.34
2022-11-20T20:05:24.270Z,94960.63
2022-11-20T20:07:50.895Z,94954.03
2022-11-20T20:10:17.520Z,94961.59
2022-11-20T20:12:44.137Z,94966.06
2022-11-20T20:15:13.464Z,94959.41
2022-11-20T20:17:40.065Z,94954.09
2022-11-20T20:20:07.072Z,94963.00
2022-11-20T20:22:33.644Z,94965.88
2022-11-20T20:25:03.468Z,94965.69
2022-11-20T20:27:31.304Z,94964.84
2022-11-20T20:29:57.872Z,94976.97
2022-11-20T20:32:24.930Z,94994.97
2022-11-20T20:34:51.631Z,94998.22
2022-11-20T20:37:18.229Z,95003.66
2022-11-20T20:39:44.848Z,95010.53
2022-11-20T20:42:11.453Z,95014.78
2022-11-20T20:44:38.059Z,95018.41
2022-11-20T20:47:05.065Z,95026.91
2022-11-20T20:49:33.308Z,95027.50
2022-11-20T20:52:00.929Z,95031.31
2022-11-20T20:54:30.307Z,95032.09
2022-11-20T20:57:00.772Z,95044.66
2022-11-20T20:59:27.368Z,95047.06
2022-11-20T21:01:54.075Z,95049.66
2022-11-20T21:04:20.723Z,95047.03
2022-11-20T21:06:47.325Z,95057.94
2022-11-20T21:09:13.948Z,95059.16
2022-11-20T21:11:40.517Z,95054.78
2022-11-20T21:14:07.225Z,95053.56
2022-11-20T21:16:33.829Z,95061.25
2022-11-20T21:19:00.444Z,95056.75
2022-11-20T21:21:27.059Z,95047.03
2022-11-20T21:23:53.860Z,95056.16
2022-11-20T21:26:21.628Z,95053.75
2022-11-20T21:28:49.317Z,95061.22
2022-11-20T21:31:20.308Z,95063.63
2022-11-20T21:33:49.308Z,95069.06
2022-11-20T21:36:18.525Z,95067.31
2022-11-20T21:38:46.730Z,95063.88
2022-11-20T21:41:15.125Z,95058.00
2022-11-20T21:43:42.228Z,95065.09
2022-11-20T21:46:14.611Z,95068.56
2022-11-20T21:48:43.473Z,95068.31
2022-11-20T21:51:18.705Z,95060.66
2022-11-20T21:53:47.217Z,95063.69
2022-11-20T21:56:20.336Z,95056.81
2022-11-20T21:58:48.885Z,95056.00
2022-11-20T22:01:17.015Z,95056.00
2022-11-20T22:03:48.784Z,95046.72
2022-11-20T22:06:16.492Z,95043.28
2022-11-20T22:08:43.115Z,95047.94
2022-11-20T22:11:14.733Z,95041.63
2022-11-20T22:13:42.233Z,95042.47
2022-11-20T22:16:09.554Z,95045.09
2022-11-20T22:18:36.516Z,95044.69
2022-11-20T22:21:05.168Z,95049.91
2022-11-20T22:23:31.872Z,95048.28
2022-11-20T22:26:06.606Z,95050.72
2022-11-20T22:28:34.812Z,95052.75
2022-11-20T22:31:03.648Z,95047.25
2022-11-20T22:33:31.791Z,95053.69
2022-11-20T22:36:07.218Z,95047.44
2022-11-20T22:38:39.040Z,95047.03
2022-11-20T22:41:13.157Z,95041.63
2022-11-20T22:43:41.305Z,95043.47
2022-11-20T22:46:15.822Z,95034.94
2022-11-20T22:48:45.108Z,95032.31
2022-11-20T22:51:14.400Z,95032.94
2022-11-20T22:53:42.901Z,95026.50
2022-11-20T22:56:11.848Z,95034.19
2022-11-20T22:58:40.430Z,95035.78
2022-11-20T23:01:16.036Z,95038.59
2022-11-20T23:03:45.970Z,95029.53
2022-11-20T23:06:13.084Z,95030.75
2022-11-20T23:08:41.348Z,95027.31
2022-11-20T23:11:11.280Z,95030.34
2022-11-20T23:13:38.865Z,95032.97
2022-11-20T23:16:17.030Z,95035.59
2022-11-20T23:18:44.828Z,95039.84
2022-11-20T23:21:14.594Z,95045.47
2022-11-20T23:23:42.083Z,95048.31
2022-11-20T23:26:11.988Z,95037.34
2022-11-20T23:28:40.338Z,95039.03
2022-11-20T23:31:08.630Z,95043.47
2022-11-20T23:33:36.552Z,95042.25
2022-11-20T23:36:03.969Z,95026.06
2022-11-20T23:38:30.632Z,95036.41
2022-11-20T23:40:57.385Z,95038.19
2022-11-20T23:43:24.820Z,95047.09
2022-11-20T23:45:54.309Z,95048.34
2022-11-20T23:48:22.881Z,95033.97
2022-11-20T23:50:49.935Z,95041.66
2022-11-20T23:53:17.885Z,95045.28
2022-11-20T23:55:53.649Z,95037.38
2022-11-20T23:58:22.088Z,95041.03
